createdAt,value
2018-07-11T00:01:25.157Z,3.23
2018-07-11T00:03:54.603Z,3.17
2018-07-11T00:06:24.275Z,3.00
2018-07-11T00:08:52.671Z,3.63
2018-07-11T00:11:21.072Z,3.40
2018-07-11T00:13:49.730Z,3.57
2018-07-11T00:16:18.514Z,3.90
2018-07-11T00:18:46.914Z,4.10
2018-07-11T00:21:15.345Z,4.87
2018-07-11T00:23:43.781Z,4.90
2018-07-11T00:26:12.474Z,4.13
2018-07-11T00:28:40.886Z,3.60
2018-07-11T00:31:09.322Z,4.33
2018-07-11T00:33:37.411Z,3.20
2018-07-11T00:36:06.160Z,3.27
2018-07-11T00:38:34.609Z,7.90
2018-07-11T00:41:03.571Z,8.13
2018-07-11T00:43:34.003Z,6.70
2018-07-11T00:46:03.002Z,5.20
2018-07-11T00:48:31.717Z,4.73
2018-07-11T00:51:00.966Z,4.20
2018-07-11T00:53:31.463Z,4.80
2018-07-11T00:56:00.521Z,5.17
2018-07-11T00:58:30.965Z,5.17
2018-07-11T01:01:09.725Z,4.63
2018-07-11T01:03:41.902Z,5.10
2018-07-11T01:06:10.841Z,4.57
2018-07-11T01:08:41.890Z,4.00
2018-07-11T01:11:13.635Z,3.60
2018-07-11T01:13:44.358Z,5.00
2018-07-11T01:16:14.538Z,5.20
2018-07-11T01:18:47.941Z,5.70
2018-07-11T01:21:16.395Z,4.83
2018-07-11T01:23:44.766Z,4.33
2018-07-11T01:26:14.216Z,3.93
2018-07-11T01:28:42.612Z,4.10
2018-07-11T01:31:11.048Z,3.73
2018-07-11T01:33:39.474Z,4.73
2018-07-11T01:36:07.893Z,4.43
2018-07-11T01:38:36.281Z,4.43
2018-07-11T01:41:09.798Z,4.00
2018-07-11T01:43:38.225Z,4.50
2018-07-11T01:46:07.017Z,4.20
2018-07-11T01:48:35.521Z,4.37
2018-07-11T01:51:03.817Z,3.87
2018-07-11T01:53:32.274Z,4.47
2018-07-11T01:56:00.738Z,4.60
2018-07-11T01:58:29.206Z,3.70
2018-07-11T02:00:57.637Z,4.10
2018-07-11T02:03:26.107Z,4.00
2018-07-11T02:05:54.714Z,4.53
2018-07-11T02:08:23.996Z,4.10
2018-07-11T02:10:52.452Z,5.23
2018-07-11T02:13:21.089Z,4.43
2018-07-11T02:15:50.389Z,4.43
2018-07-11T02:18:22.674Z,4.57
2018-07-11T02:20:52.012Z,4.90
2018-07-11T02:23:20.553Z,5.83
2018-07-11T02:25:49.147Z,5.53
2018-07-11T02:28:17.653Z,5.63
2018-07-11T02:30:46.071Z,6.03
2018-07-11T02:33:14.483Z,6.57
2018-07-11T02:35:42.957Z,5.87
2018-07-11T02:38:11.036Z,5.27
2018-07-11T02:40:39.754Z,5.33
2018-07-11T02:43:08.138Z,6.50
2018-07-11T02:45:36.579Z,5.87
2018-07-11T02:48:04.982Z,6.10
2018-07-11T02:50:33.438Z,5.57
2018-07-11T02:53:01.861Z,7.67
2018-07-11T02:55:30.294Z,6.30
2018-07-11T02:57:58.937Z,7.63
2018-07-11T03:00:27.419Z,6.27
2018-07-11T03:02:55.846Z,5.23
2018-07-11T03:05:24.295Z,5.73
2018-07-11T03:07:52.707Z,7.40
2018-07-11T03:10:21.139Z,7.37
2018-07-11T03:12:49.522Z,7.17
2018-07-11T03:15:17.922Z,7.37
2018-07-11T03:17:46.448Z,6.87
2018-07-11T03:20:14.873Z,6.40
2018-07-11T03:22:43.294Z,6.53
2018-07-11T03:25:11.699Z,6.67
2018-07-11T03:27:40.107Z,7.30
2018-07-11T03:30:08.596Z,8.00
2018-07-11T03:32:37.141Z,7.23
2018-07-11T03:35:05.555Z,6.90
2018-07-11T03:37:33.979Z,7.27
2018-07-11T03:40:02.413Z,7.47
2018-07-11T03:42:30.766Z,6.37
2018-07-11T03:44:59.262Z,7.27
2018-07-11T03:47:27.686Z,8.40
2018-07-11T03:49:56.167Z,8.13
2018-07-11T03:52:24.594Z,6.57
2018-07-11T03:54:52.972Z,6.97
2018-07-11T03:57:21.402Z,7.30
2018-07-11T03:59:49.813Z,7.60
2018-07-11T04:02:18.198Z,7.57
2018-07-11T04:04:46.635Z,8.33
2018-07-11T04:07:15.121Z,7.67
2018-07-11T04:09:43.518Z,7.97
2018-07-11T04:12:11.891Z,7.60
2018-07-11T04:14:40.256Z,8.47
2018-07-11T04:17:08.784Z,7.83
2018-07-11T04:19:37.126Z,8.33
2018-07-11T04:22:05.602Z,9.33
2018-07-11T04:24:34.078Z,8.03
2018-07-11T04:27:02.605Z,8.60
2018-07-11T04:29:31.045Z,8.03
2018-07-11T04:31:59.546Z,8.43
2018-07-11T04:34:28.025Z,8.50
2018-07-11T04:36:56.450Z,8.73
2018-07-11T04:39:24.919Z,8.07
2018-07-11T04:41:53.553Z,6.47
2018-07-11T04:44:22.041Z,7.77
2018-07-11T04:46:50.529Z,7.40
2018-07-11T04:49:18.994Z,8.47
2018-07-11T04:51:47.666Z,7.60
2018-07-11T04:54:16.656Z,8.03
2018-07-11T04:56:45.113Z,7.70
2018-07-11T04:59:13.470Z,7.13
2018-07-11T05:01:41.888Z,8.20
2018-07-11T05:04:10.279Z,7.73
2018-07-11T05:06:38.672Z,7.23
2018-07-11T05:09:07.106Z,8.57
2018-07-11T05:11:35.494Z,7.97
2018-07-11T05:14:04.102Z,7.47
2018-07-11T05:16:32.516Z,6.57
2018-07-11T05:19:00.884Z,6.50
2018-07-11T05:21:29.399Z,7.70
2018-07-11T05:23:57.848Z,7.17
2018-07-11T05:26:26.390Z,9.13
2018-07-11T05:28:54.813Z,6.83
2018-07-11T05:31:23.283Z,7.40
2018-07-11T05:33:51.676Z,6.93
2018-07-11T05:36:20.101Z,7.77
2018-07-11T05:38:48.516Z,7.17
2018-07-11T05:41:16.912Z,7.30
2018-07-11T05:43:45.307Z,8.10
2018-07-11T05:46:13.687Z,7.43
2018-07-11T05:48:42.428Z,10.27
2018-07-11T05:51:10.957Z,9.10
2018-07-11T05:53:39.374Z,10.40
2018-07-11T05:56:07.851Z,9.80
2018-07-11T05:58:36.501Z,9.93
2018-07-11T06:01:05.070Z,10.67
2018-07-11T06:03:33.487Z,10.53
2018-07-11T06:06:01.927Z,9.33
2018-07-11T06:08:30.306Z,9.03
2018-07-11T06:10:58.672Z,9.30
2018-07-11T06:13:27.204Z,8.30
2018-07-11T06:15:55.573Z,9.27
2018-07-11T06:18:24.974Z,9.43
2018-07-11T06:20:53.393Z,8.33
2018-07-11T06:23:21.968Z,9.33
2018-07-11T06:25:50.342Z,9.53
2018-07-11T06:28:18.740Z,8.70
2018-07-11T06:30:47.306Z,8.77
2018-07-11T06:33:15.759Z,8.98
2018-07-11T06:35:44.131Z,8.75
2018-07-11T06:38:12.694Z,9.90
2018-07-11T06:40:41.061Z,10.23
2018-07-11T06:43:09.634Z,7.67
2018-07-11T06:45:38.051Z,7.97
2018-07-11T06:48:06.629Z,6.95
2018-07-11T06:50:35.021Z,7.40
2018-07-11T06:53:04.099Z,7.13
2018-07-11T06:55:32.526Z,6.90
2018-07-11T06:58:00.952Z,6.75
2018-07-11T07:00:29.463Z,8.05
2018-07-11T07:02:57.875Z,6.65
2018-07-11T07:05:26.307Z,6.00
2018-07-11T07:07:54.760Z,6.58
2018-07-11T07:10:23.183Z,5.53
2018-07-11T07:12:51.559Z,7.77
2018-07-11T07:15:20.506Z,8.23
2018-07-11T07:17:48.936Z,7.40
2018-07-11T07:20:17.537Z,9.15
2018-07-11T07:22:45.943Z,8.83
2018-07-11T07:25:14.343Z,7.87
2018-07-11T07:27:43.012Z,7.40
2018-07-11T07:30:11.471Z,7.17
2018-07-11T07:32:39.888Z,7.62
2018-07-11T07:35:08.311Z,7.85
2018-07-11T07:37:36.766Z,9.90
2018-07-11T07:40:05.227Z,8.40
2018-07-11T07:42:33.667Z,6.40
2018-07-11T07:45:02.108Z,7.65
2018-07-11T07:47:46.235Z,6.33
2018-07-11T07:50:15.842Z,8.48
2018-07-11T07:52:44.305Z,8.58
2018-07-11T07:55:12.847Z,7.90
2018-07-11T07:57:42.006Z,9.03
2018-07-11T08:00:10.522Z,6.45
2018-07-11T08:02:39.309Z,7.45
2018-07-11T08:05:09.157Z,5.78
2018-07-11T08:07:38.680Z,5.67
2018-07-11T08:10:08.180Z,6.08
2018-07-11T08:12:37.075Z,6.15
2018-07-11T08:15:06.434Z,4.80
2018-07-11T08:17:34.837Z,6.95
2018-07-11T08:20:03.267Z,6.55
2018-07-11T08:23:13.674Z,5.67
2018-07-11T08:25:54.851Z,5.50
2018-07-11T08:29:35.676Z,5.47
2018-07-11T08:33:49.923Z,4.45
2018-07-11T08:36:31.066Z,5.22
2018-07-11T08:39:31.335Z,4.40
2018-07-11T08:42:11.214Z,5.22
2018-07-11T08:44:59.226Z,4.25
2018-07-11T08:48:41.539Z,4.80
2018-07-11T08:53:28.774Z,4.22
2018-07-11T08:56:08.306Z,3.72
2018-07-11T09:00:55.260Z,4.40
2018-07-11T09:05:48.221Z,4.12
2018-07-11T09:10:33.240Z,3.80
2018-07-11T09:13:12.938Z,4.67
2018-07-11T09:15:52.651Z,3.50
2018-07-11T09:18:49.899Z,4.62
2018-07-11T09:21:26.877Z,3.10
2018-07-11T09:24:07.775Z,2.30
2018-07-11T09:26:35.872Z,3.20
2018-07-11T09:29:04.314Z,3.40
2018-07-11T09:31:32.962Z,4.03
2018-07-11T09:34:01.360Z,4.08
2018-07-11T09:36:29.870Z,4.55
2018-07-11T09:38:58.255Z,3.80
2018-07-11T09:41:26.781Z,4.15
2018-07-11T09:43:55.571Z,4.35
2018-07-11T09:46:24.270Z,3.30
2018-07-11T09:48:52.663Z,2.70
2018-07-11T09:51:21.147Z,3.47
2018-07-11T09:53:49.659Z,3.40
2018-07-11T09:56:18.230Z,2.80
2018-07-11T09:58:47.634Z,3.60
2018-07-11T10:01:21.362Z,3.37
2018-07-11T10:03:49.855Z,3.30
2018-07-11T10:06:18.449Z,3.30
2018-07-11T10:08:46.948Z,3.55
2018-07-11T10:11:15.386Z,3.02
2018-07-11T10:13:44.170Z,3.02
2018-07-11T10:16:13.739Z,1.77
2018-07-11T10:18:55.439Z,2.30
2018-07-11T10:21:23.921Z,3.05
2018-07-11T10:23:52.916Z,2.10
2018-07-11T10:26:21.353Z,2.15
2018-07-11T10:28:49.750Z,2.22
2018-07-11T10:31:18.407Z,2.58
2018-07-11T10:33:47.029Z,2.80
2018-07-11T10:36:15.544Z,5.55
2018-07-11T10:38:44.039Z,2.55
2018-07-11T10:41:12.437Z,3.00
2018-07-11T10:43:41.318Z,2.60
2018-07-11T10:46:09.930Z,2.30
2018-07-11T10:48:38.643Z,2.40
2018-07-11T10:51:07.352Z,2.60
2018-07-11T10:53:35.808Z,2.40
2018-07-11T10:56:04.391Z,2.60
2018-07-11T10:58:33.589Z,3.10
2018-07-11T11:01:05.697Z,3.22
2018-07-11T11:03:32.771Z,2.15
2018-07-11T11:06:01.420Z,2.15
2018-07-11T11:08:30.474Z,2.70
2018-07-11T11:10:58.977Z,2.08
2018-07-11T11:13:27.687Z,2.00
2018-07-11T11:15:56.711Z,2.10
2018-07-11T11:18:25.612Z,1.50
2018-07-11T11:20:55.108Z,3.80
2018-07-11T11:23:23.694Z,2.08
2018-07-11T11:25:52.297Z,1.82
2018-07-11T11:28:20.717Z,2.00
2018-07-11T11:30:49.155Z,2.10
2018-07-11T11:33:17.647Z,1.80
2018-07-11T11:35:46.386Z,2.22
2018-07-11T11:38:15.799Z,3.42
2018-07-11T11:40:44.286Z,3.62
2018-07-11T11:43:12.935Z,2.52
2018-07-11T11:45:41.451Z,2.80
2018-07-11T11:48:09.908Z,3.37
2018-07-11T11:50:38.027Z,3.70
2018-07-11T11:53:06.623Z,2.85
2018-07-11T11:55:35.031Z,2.50
2018-07-11T11:58:03.485Z,2.67
2018-07-11T12:00:32.342Z,1.92
2018-07-11T12:03:00.909Z,2.55
2018-07-11T12:05:29.433Z,3.17
2018-07-11T12:07:57.899Z,3.55
2018-07-11T12:10:26.519Z,4.50
2018-07-11T12:12:54.934Z,2.30
2018-07-11T12:15:23.346Z,2.30
2018-07-11T12:17:52.026Z,1.87
2018-07-11T12:20:20.455Z,1.77
2018-07-11T12:22:48.605Z,1.50
2018-07-11T12:25:17.293Z,1.20
2018-07-11T12:27:46.079Z,1.85
2018-07-11T12:30:14.450Z,1.07
2018-07-11T12:32:43.516Z,1.60
2018-07-11T12:35:12.341Z,1.30
2018-07-11T12:37:40.841Z,1.65
2018-07-11T12:40:09.371Z,1.55
2018-07-11T12:42:37.859Z,1.60
2018-07-11T12:45:06.278Z,1.17
2018-07-11T12:47:40.142Z,1.40
2018-07-11T12:50:08.607Z,1.30
2018-07-11T12:52:37.114Z,1.00
2018-07-11T12:55:05.588Z,1.42
2018-07-11T12:57:34.111Z,1.02
2018-07-11T13:00:02.612Z,1.10
2018-07-11T13:02:31.531Z,1.10
2018-07-11T13:05:00.047Z,1.50
2018-07-11T13:07:28.540Z,1.70
2018-07-11T13:09:58.557Z,1.20
2018-07-11T13:12:27.031Z,1.98
2018-07-11T13:14:55.509Z,2.02
2018-07-11T13:17:24.081Z,2.47
2018-07-11T13:19:52.586Z,1.62
2018-07-11T13:22:20.979Z,2.60
2018-07-11T13:24:49.415Z,1.90
2018-07-11T13:27:18.193Z,1.07
2018-07-11T13:29:46.603Z,1.40
2018-07-11T13:32:15.178Z,1.47
2018-07-11T13:34:44.057Z,1.45
2018-07-11T13:37:12.699Z,1.95
2018-07-11T13:39:41.098Z,2.62
2018-07-11T13:42:09.526Z,1.80
2018-07-11T13:44:38.048Z,2.12
2018-07-11T13:47:12.020Z,1.42
2018-07-11T13:49:40.495Z,2.35
2018-07-11T13:52:08.986Z,1.90
2018-07-11T13:54:37.987Z,1.57
2018-07-11T13:57:06.398Z,1.80
2018-07-11T13:59:34.952Z,1.60
2018-07-11T14:02:03.795Z,2.00
2018-07-11T14:04:32.960Z,2.22
2018-07-11T14:07:01.347Z,2.98
2018-07-11T14:09:29.868Z,1.90
2018-07-11T14:11:58.278Z,1.75
2018-07-11T14:14:26.981Z,2.12
2018-07-11T14:16:55.442Z,3.02
2018-07-11T14:19:25.051Z,3.52
2018-07-11T14:21:54.464Z,2.20
2018-07-11T14:24:22.933Z,2.00
2018-07-11T14:26:51.569Z,6.12
2018-07-11T14:29:22.768Z,9.10
2018-07-11T14:31:53.411Z,5.78
2018-07-11T14:34:22.129Z,5.00
2018-07-11T14:36:50.583Z,3.90
2018-07-11T14:39:19.004Z,6.22
2018-07-11T14:41:47.474Z,8.53
2018-07-11T14:44:16.454Z,4.92
2018-07-11T14:46:44.939Z,2.83
2018-07-11T14:49:15.451Z,2.20
2018-07-11T14:51:44.073Z,2.42
2018-07-11T14:54:13.130Z,2.83
2018-07-11T14:56:41.672Z,3.05
2018-07-11T14:59:10.450Z,2.30
2018-07-11T15:01:39.020Z,2.33
2018-07-11T15:04:08.492Z,1.98
2018-07-11T15:06:36.888Z,5.75
2018-07-11T15:09:05.971Z,9.48
2018-07-11T15:11:34.863Z,4.97
2018-07-11T15:14:03.377Z,2.22
2018-07-11T15:16:31.972Z,2.33
2018-07-11T15:19:00.395Z,2.90
2018-07-11T15:21:29.634Z,2.60
2018-07-11T15:23:58.099Z,2.60
2018-07-11T15:26:26.746Z,2.50
2018-07-11T15:28:55.209Z,2.35
2018-07-11T15:31:23.783Z,2.33
2018-07-11T15:33:55.980Z,3.20
2018-07-11T15:36:24.484Z,10.60
2018-07-11T15:38:52.930Z,21.42
2018-07-11T15:41:21.397Z,4.58
2018-07-11T15:43:49.836Z,3.17
2018-07-11T15:46:18.315Z,3.35
2018-07-11T15:48:47.170Z,2.60
2018-07-11T15:51:15.943Z,5.33
2018-07-11T15:53:44.365Z,5.03
2018-07-11T15:56:12.918Z,6.58
2018-07-11T15:58:44.567Z,3.30
2018-07-11T16:01:11.207Z,5.40
2018-07-11T16:03:45.454Z,8.20
2018-07-11T16:06:15.135Z,3.60
2018-07-11T16:08:49.321Z,2.77
2018-07-11T16:11:17.807Z,2.72
2018-07-11T16:13:46.278Z,11.00
2018-07-11T16:16:15.141Z,6.22
2018-07-11T16:18:43.751Z,5.65
2018-07-11T16:21:12.158Z,6.92
2018-07-11T16:23:40.630Z,5.75
2018-07-11T16:26:09.357Z,10.25
2018-07-11T16:28:37.811Z,3.52
2018-07-11T16:31:06.347Z,14.53
2018-07-11T16:33:34.845Z,10.25
2018-07-11T16:36:03.248Z,21.30
2018-07-11T16:38:31.880Z,16.87
2018-07-11T16:41:00.316Z,11.83
2018-07-11T16:43:28.762Z,9.85
2018-07-11T16:45:57.476Z,11.40
2018-07-11T16:48:25.939Z,10.05
2018-07-11T16:50:54.067Z,9.13
2018-07-11T16:53:22.906Z,13.55
2018-07-11T16:55:51.849Z,7.80
2018-07-11T16:58:28.554Z,5.00
2018-07-11T17:00:58.344Z,3.10
2018-07-11T17:03:28.730Z,6.60
2018-07-11T17:06:03.001Z,6.80
2018-07-11T17:08:34.963Z,8.28
2018-07-11T17:11:15.151Z,4.95
2018-07-11T17:14:03.818Z,12.03
2018-07-11T17:16:37.775Z,10.40
2018-07-11T17:19:12.190Z,3.90
2018-07-11T17:21:46.688Z,2.95
2018-07-11T17:24:18.785Z,1.72
2018-07-11T17:26:48.639Z,1.95
2018-07-11T17:29:24.414Z,1.70
2018-07-11T17:32:01.706Z,1.98
2018-07-11T17:34:30.478Z,1.40
2018-07-11T17:37:01.048Z,1.70
2018-07-11T17:39:41.522Z,3.27
2018-07-11T17:42:10.569Z,5.70
2018-07-11T17:44:41.244Z,6.90
2018-07-11T17:47:09.727Z,7.60
2018-07-11T17:49:43.633Z,13.72
2018-07-11T17:52:13.005Z,2.40
2018-07-11T17:55:09.237Z,1.70
2018-07-11T17:57:42.938Z,2.35
2018-07-11T18:00:11.533Z,2.10
2018-07-11T18:02:49.594Z,1.87
2018-07-11T18:05:28.284Z,1.90
2018-07-11T18:07:56.874Z,2.30
2018-07-11T18:10:31.638Z,2.47
2018-07-11T18:14:05.843Z,2.65
2018-07-11T18:16:42.998Z,2.87
2018-07-11T18:19:16.703Z,3.08
2018-07-11T18:21:56.473Z,2.62
2018-07-11T18:24:35.434Z,3.40
2018-07-11T18:27:12.083Z,3.40
2018-07-11T18:29:54.825Z,2.92
2018-07-11T18:32:37.639Z,3.40
2018-07-11T18:35:32.781Z,3.65
2018-07-11T18:38:12.691Z,3.80
2018-07-11T18:40:49.052Z,3.20
2018-07-11T18:43:26.390Z,3.17
2018-07-11T18:46:05.910Z,3.30
2018-07-11T18:48:45.239Z,3.47
2018-07-11T18:51:24.534Z,2.80
2018-07-11T18:54:10.454Z,3.20
2018-07-11T18:56:53.462Z,3.00
2018-07-11T18:59:29.386Z,3.20
2018-07-11T19:02:04.387Z,3.02
2018-07-11T19:04:55.948Z,2.95
2018-07-11T19:08:46.645Z,2.95
2018-07-11T19:11:21.431Z,2.90
2018-07-11T19:13:53.611Z,3.05
2018-07-11T19:16:27.537Z,3.20
2018-07-11T19:18:57.518Z,3.00
2018-07-11T19:22:03.603Z,2.70
2018-07-11T19:25:43.010Z,2.60
2018-07-11T19:29:56.750Z,2.80
2018-07-11T19:32:36.496Z,3.00
2018-07-11T19:35:17.856Z,2.42
2018-07-11T19:39:01.648Z,2.85
2018-07-11T19:41:44.254Z,2.62
2018-07-11T19:44:43.565Z,3.17
2018-07-11T19:47:23.518Z,3.00
2018-07-11T19:50:03.163Z,2.80
2018-07-11T19:54:46.817Z,2.72
2018-07-11T19:57:15.873Z,2.75
2018-07-11T19:59:45.234Z,2.98
2018-07-11T20:02:14.676Z,2.85
2018-07-11T20:04:44.712Z,2.42
2018-07-11T20:07:13.967Z,2.92
2018-07-11T20:09:43.018Z,2.52
2018-07-11T20:12:14.162Z,2.80
2018-07-11T20:14:42.754Z,2.70
2018-07-11T20:17:11.258Z,2.40
2018-07-11T20:19:39.906Z,2.95
2018-07-11T20:22:09.106Z,3.02
2018-07-11T20:24:37.936Z,2.70
2018-07-11T20:27:06.339Z,2.67
2018-07-11T20:29:34.795Z,2.90
2018-07-11T20:32:03.267Z,3.00
2018-07-11T20:34:32.214Z,2.83
2018-07-11T20:37:01.487Z,3.17
2018-07-11T20:39:30.622Z,3.30
2018-07-11T20:41:59.724Z,2.62
2018-07-11T20:44:28.299Z,2.70
2018-07-11T20:46:56.780Z,3.05
2018-07-11T20:49:30.986Z,2.65
2018-07-11T20:51:59.632Z,2.80
2018-07-11T20:54:28.720Z,2.90
2018-07-11T20:56:57.614Z,2.40
2018-07-11T20:59:37.545Z,2.45
2018-07-11T21:02:17.374Z,2.45
2018-07-11T21:04:54.312Z,2.72
2018-07-11T21:08:09.149Z,2.83
2018-07-11T21:10:58.843Z,2.47
2018-07-11T21:14:41.457Z,2.95
2018-07-11T21:19:19.314Z,3.67
2018-07-11T21:21:47.758Z,3.22
2018-07-11T21:24:16.182Z,2.85
2018-07-11T21:26:44.673Z,3.33
2018-07-11T21:29:13.059Z,3.20
2018-07-11T21:31:41.487Z,3.30
2018-07-11T21:34:09.926Z,3.25
2018-07-11T21:36:38.353Z,3.70
2018-07-11T21:39:07.287Z,3.10
2018-07-11T21:41:35.677Z,3.10
2018-07-11T21:44:04.199Z,3.00
2018-07-11T21:46:32.626Z,2.95
2018-07-11T21:49:01.090Z,3.20
2018-07-11T21:51:29.490Z,3.22
2018-07-11T21:53:58.017Z,3.08
2018-07-11T21:56:26.457Z,3.17
2018-07-11T21:58:54.934Z,3.02
2018-07-11T22:01:23.356Z,3.00
2018-07-11T22:03:51.791Z,3.17
2018-07-11T22:06:20.254Z,3.10
2018-07-11T22:08:48.667Z,3.02
2018-07-11T22:11:17.081Z,3.67
2018-07-11T22:13:45.475Z,3.70
2018-07-11T22:16:13.929Z,3.90
2018-07-11T22:18:43.716Z,5.47
2018-07-11T22:21:12.008Z,4.87
2018-07-11T22:23:40.024Z,5.93
2018-07-11T22:26:07.369Z,6.60
2018-07-11T22:28:34.675Z,7.10
2018-07-11T22:31:01.997Z,7.20
2018-07-11T22:33:29.317Z,8.33
2018-07-11T22:35:56.647Z,8.33
2018-07-11T22:38:23.934Z,6.37
2018-07-11T22:40:51.219Z,7.90
2018-07-11T22:43:18.501Z,9.80
2018-07-11T22:45:45.812Z,8.20
2018-07-11T22:48:13.120Z,8.07
2018-07-11T22:50:40.416Z,8.23
2018-07-11T22:53:07.703Z,6.53
2018-07-11T22:55:35.015Z,6.67
2018-07-11T22:58:02.339Z,6.77
2018-07-11T23:00:29.645Z,7.57
2018-07-11T23:02:56.945Z,6.97
2018-07-11T23:05:24.263Z,11.03
2018-07-11T23:07:51.534Z,9.40
2018-07-11T23:10:18.855Z,7.33
2018-07-11T23:12:46.138Z,7.70
2018-07-11T23:15:13.725Z,7.13
2018-07-11T23:17:41.010Z,7.03
2018-07-11T23:20:08.335Z,5.70
2018-07-11T23:22:35.641Z,5.20
2018-07-11T23:25:02.967Z,5.10
2018-07-11T23:27:30.247Z,5.47
2018-07-11T23:29:57.556Z,4.63
2018-07-11T23:32:24.879Z,4.97
2018-07-11T23:34:52.197Z,4.95
2018-07-11T23:37:19.490Z,5.25
2018-07-11T23:39:46.790Z,4.90
2018-07-11T23:42:14.065Z,5.08
2018-07-11T23:44:41.374Z,4.40
2018-07-11T23:47:08.716Z,4.73
2018-07-11T23:49:36.031Z,5.00
2018-07-11T23:52:03.348Z,4.93
2018-07-11T23:54:30.660Z,4.70
2018-07-11T23:56:57.934Z,4.33
2018-07-11T23:59:25.240Z,4.23
